Time;durP1;ratioP1;P1;durP2;ratioP2;P2;SDS_P1;SDS_P2;PMS_P1;PMS_P2;Temp;Humidity;BMP_temperature;BMP_pressure;BME280_temperature;BME280_humidity;BME280_pressure;Samples;Min_cycle;Max_cycle;Signal;HPM_P1;HPM_P2
2023/12/14 00:01:26;;;;;;;0.00;0.00;;;;;;;13.17;59.13;101087.66;5054020;28;20070;-82
2023/12/14 00:03:52;;;;;;;0.23;0.23;;;;;;;12.86;58.54;101090.78;5063505;28;20039;-82
2023/12/14 00:06:17;;;;;;;0.07;0.07;;;;;;;13.33;57.52;101094.38;5059691;28;20527;-81
2023/12/14 00:08:42;;;;;;;0.00;0.00;;;;;;;13.82;55.29;101099.66;5057399;28;20571;-81
2023/12/14 00:11:10;;;;;;;0.00;0.00;;;;;;;13.88;55.07;101104.78;5068235;28;20029;-81
2023/12/14 00:13:35;;;;;;;0.30;0.30;;;;;;;13.82;55.20;101120.66;5060777;28;20024;-81
2023/12/14 00:16:01;;;;;;;0.20;0.20;;;;;;;13.01;57.10;101118.50;5062051;28;20083;-82
2023/12/14 00:18:27;;;;;;;0.00;0.00;;;;;;;12.37;60.53;101124.66;5059107;28;20029;-81
2023/12/14 00:20:53;;;;;;;0.53;0.53;;;;;;;13.61;55.98;101125.41;5074258;28;20020;-81
2023/12/14 00:23:19;;;;;;;0.00;0.00;;;;;;;13.38;56.51;101129.31;5060023;28;20452;-82
2023/12/14 00:25:45;;;;;;;0.10;0.10;;;;;;;13.64;54.92;101130.63;5068942;28;20048;-81
2023/12/14 00:28:11;;;;;;;0.00;0.00;;;;;;;12.32;56.41;101136.09;5055492;28;20028;-82
2023/12/14 00:30:36;;;;;;;0.27;0.20;;;;;;;12.54;58.64;101144.53;5073415;28;20027;-82
2023/12/14 00:33:02;;;;;;;0.97;0.97;;;;;;;12.87;57.32;101145.84;5072583;28;20447;-82
2023/12/14 00:35:30;;;;;;;0.10;0.10;;;;;;;13.66;54.57;101154.25;5065915;28;20438;-82
2023/12/14 00:37:55;;;;;;;0.00;0.00;;;;;;;13.52;55.03;101154.50;5054336;28;20025;-81
2023/12/14 00:40:21;;;;;;;0.10;0.10;;;;;;;14.07;54.37;101168.38;5058292;28;20427;-81
2023/12/14 00:42:46;;;;;;;0.00;0.00;;;;;;;13.73;53.84;101164.59;5051814;28;20025;-81
2023/12/14 00:45:11;;;;;;;0.00;0.00;;;;;;;14.07;54.02;101168.38;5070247;28;20024;-81
2023/12/14 00:47:37;;;;;;;0.00;0.00;;;;;;;13.73;54.16;101175.09;5052997;28;20028;-81
2023/12/14 00:50:03;;;;;;;0.37;0.37;;;;;;;13.43;55.96;101173.88;5065925;28;20029;-81
2023/12/14 00:52:28;;;;;;;0.10;0.10;;;;;;;13.81;54.79;101187.25;5054045;28;20025;-82
2023/12/14 00:54:54;;;;;;;0.07;0.07;;;;;;;12.71;57.31;101199.41;5067563;28;20514;-81
2023/12/14 00:57:19;;;;;;;0.00;0.00;;;;;;;13.32;56.40;101195.00;5053822;28;20029;-81
2023/12/14 00:59:45;;;;;;;0.00;0.00;;;;;;;12.89;56.73;101198.28;5057700;28;20025;-81
2023/12/14 01:02:10;;;;;;;0.00;0.00;;;;;;;12.78;57.14;101202.81;5052074;28;20112;-81
2023/12/14 01:04:36;;;;;;;0.00;0.00;;;;;;;13.13;56.26;101209.31;5065783;28;20480;-81
2023/12/14 01:07:01;;;;;;;0.83;0.83;;;;;;;12.54;57.51;101215.34;5058105;28;20133;-81
2023/12/14 01:09:27;;;;;;;0.30;0.30;;;;;;;12.92;57.33;101221.84;5042331;28;20035;-80
2023/12/14 01:11:52;;;;;;;0.07;0.07;;;;;;;12.63;57.88;101224.88;5040754;28;20049;-81
2023/12/14 01:14:17;;;;;;;3.50;2.43;;;;;;;12.41;58.63;101219.88;5060489;28;20064;-81
2023/12/14 01:16:43;;;;;;;0.10;0.10;;;;;;;13.20;56.87;101213.56;5057316;28;20502;-81
2023/12/14 01:19:08;;;;;;;0.50;0.50;;;;;;;14.02;54.25;101220.16;5058234;28;20075;-81
2023/12/14 01:21:33;;;;;;;3.40;3.07;;;;;;;13.58;54.50;101225.28;5073607;28;20039;-81
2023/12/14 01:24:02;;;;;;;0.10;0.10;;;;;;;12.73;56.94;101232.59;5068351;28;20031;-81
2023/12/14 01:26:27;;;;;;;0.83;0.83;;;;;;;13.04;56.19;101237.44;5059870;28;20040;-82
2023/12/14 01:28:53;;;;;;;0.00;0.00;;;;;;;13.09;54.85;101233.88;5054661;28;20033;-81
2023/12/14 01:31:18;;;;;;;0.00;0.00;;;;;;;13.32;55.46;101246.66;5063424;28;20074;-81
2023/12/14 01:33:45;;;;;;;0.17;0.17;;;;;;;13.24;55.67;101254.63;5053808;28;20503;-81
2023/12/14 01:36:11;;;;;;;0.00;0.00;;;;;;;12.96;56.31;101259.41;5059430;28;20024;-81
2023/12/14 01:38:36;;;;;;;3.63;0.70;;;;;;;12.68;56.33;101258.00;5052459;28;20040;-82
2023/12/14 01:41:02;;;;;;;0.00;0.00;;;;;;;13.76;53.98;101265.28;5061002;28;20020;-81
2023/12/14 01:43:27;;;;;;;0.00;0.00;;;;;;;13.13;54.93;101264.44;5051074;28;20041;-81
2023/12/14 01:45:53;;;;;;;0.00;0.00;;;;;;;13.56;54.04;101282.25;5061087;28;20029;-82
2023/12/14 01:48:18;;;;;;;0.27;0.23;;;;;;;13.82;53.59;101284.44;5052470;28;20036;-81
2023/12/14 01:50:43;;;;;;;0.00;0.00;;;;;;;14.49;51.88;101285.91;5055777;28;20116;-81
2023/12/14 01:53:09;;;;;;;1.00;1.00;;;;;;;13.20;54.04;101295.84;5051416;28;20021;-81
2023/12/14 01:55:34;;;;;;;0.97;0.97;;;;;;;13.55;53.46;101301.50;5054197;28;20472;-81
2023/12/14 01:58:02;;;;;;;0.03;0.03;;;;;;;14.20;52.03;101305.72;5031524;28;20423;-80
2023/12/14 02:01:10;;;;;;;0.00;0.00;;;;;;;14.59;51.44;101313.78;5043260;28;20028;-80
2023/12/14 02:03:35;;;;;;;0.00;0.00;;;;;;;13.53;53.72;101324.28;5048441;28;20508;-81
2023/12/14 02:06:01;;;;;;;0.00;0.00;;;;;;;13.11;54.37;101316.09;5047107;28;20033;-81
2023/12/14 02:08:27;;;;;;;0.00;0.00;;;;;;;13.78;52.92;101321.28;5052673;28;20025;-81
2023/12/14 02:10:53;;;;;;;0.20;0.20;;;;;;;13.83;53.57;101327.34;5048881;28;20497;-81
2023/12/14 02:13:18;;;;;;;0.50;0.40;;;;;;;13.50;54.04;101329.59;5043088;28;20033;-81
2023/12/14 02:15:43;;;;;;;0.20;0.20;;;;;;;12.92;54.15;101339.91;5044644;28;20481;-81
2023/12/14 02:18:09;;;;;;;0.00;0.00;;;;;;;13.20;54.97;101342.19;5050782;28;20039;-81
2023/12/14 02:20:34;;;;;;;0.77;0.33;;;;;;;13.29;54.19;101330.72;5053128;28;20493;-81
2023/12/14 02:23:02;;;;;;;0.67;0.63;;;;;;;13.54;53.47;101341.78;5050986;28;20043;-81
2023/12/14 02:25:27;;;;;;;0.00;0.00;;;;;;;12.35;55.60;101351.88;5051701;28;20032;-82
2023/12/14 02:27:53;;;;;;;7.30;1.93;;;;;;;13.20;55.43;101348.34;5050572;28;20029;-80
2023/12/14 02:30:18;;;;;;;0.10;0.10;;;;;;;13.49;54.08;101348.84;5053349;28;20081;-81
2023/12/14 02:32:44;;;;;;;0.00;0.00;;;;;;;12.89;55.31;101368.81;5050454;28;20021;-81
2023/12/14 02:35:10;;;;;;;0.43;0.43;;;;;;;13.73;53.11;101364.25;5051354;28;20060;-81
2023/12/14 02:37:37;;;;;;;0.30;0.30;;;;;;;13.76;53.66;101367.75;5052202;28;20047;-81
2023/12/14 02:40:04;;;;;;;0.10;0.10;;;;;;;13.32;54.07;101373.53;5050946;28;20108;-81
2023/12/14 02:42:29;;;;;;;0.07;0.07;;;;;;;13.74;53.40;101365.16;5044142;28;20029;-81
2023/12/14 02:44:56;;;;;;;16.97;7.70;;;;;;;13.89;52.85;101379.81;5030415;28;20056;-81
2023/12/14 02:47:21;;;;;;;19.40;7.27;;;;;;;13.07;55.10;101376.47;5068498;28;20033;-81
2023/12/14 02:49:46;;;;;;;14.70;7.30;;;;;;;12.86;55.86;101379.34;5067202;28;20489;-81
2023/12/14 02:52:12;;;;;;;14.47;6.37;;;;;;;12.42;56.50;101383.25;5055722;28;20063;-81
2023/12/14 02:54:39;;;;;;;16.70;6.33;;;;;;;12.61;56.55;101389.22;5046166;28;20040;-81
2023/12/14 02:57:04;;;;;;;17.97;7.00;;;;;;;12.25;57.36;101397.38;5057551;28;20035;-81
2023/12/14 02:59:30;;;;;;;15.37;6.50;;;;;;;12.09;58.68;101390.53;5052685;28;20025;-81
2023/12/14 03:01:55;;;;;;;15.73;5.93;;;;;;;13.21;55.18;101385.94;5049449;28;20027;-81
2023/12/14 03:04:20;;;;;;;13.13;5.87;;;;;;;12.63;57.19;101383.06;5049565;28;20029;-80
2023/12/14 03:06:46;;;;;;;17.60;6.73;;;;;;;12.86;56.09;101389.84;5066523;28;20475;-83
2023/12/14 03:09:11;;;;;;;20.53;7.00;;;;;;;12.85;55.70;101393.34;5049015;28;20054;-81
2023/12/14 03:11:36;;;;;;;14.70;7.03;;;;;;;12.63;56.01;101392.69;5053702;28;20099;-81
2023/12/14 03:14:02;;;;;;;18.10;7.10;;;;;;;13.38;54.35;101393.63;5050029;28;20028;-82
2023/12/14 03:16:27;;;;;;;15.67;5.63;;;;;;;12.76;55.30;101390.81;5050338;28;20396;-81
2023/12/14 03:18:53;;;;;;;13.33;6.87;;;;;;;11.95;58.56;101409.84;5046845;28;20029;-81
2023/12/14 03:21:19;;;;;;;18.73;7.17;;;;;;;13.42;54.65;101399.72;5033826;28;20034;-81
2023/12/14 03:23:45;;;;;;;16.97;7.03;;;;;;;11.83;58.34;101420.38;5046420;28;20025;-81
2023/12/14 03:26:10;;;;;;;15.67;6.53;;;;;;;12.53;56.65;101415.53;5046174;28;20029;-81
2023/12/14 03:28:35;;;;;;;16.87;6.90;;;;;;;12.25;58.33;101417.50;5059242;28;20182;-81
2023/12/14 03:31:01;;;;;;;15.97;6.50;;;;;;;13.04;55.97;101421.13;5050312;28;20028;-81
2023/12/14 03:33:26;;;;;;;15.87;6.90;;;;;;;12.53;56.65;101408.50;5068899;28;20028;-81
2023/12/14 03:35:52;;;;;;;14.13;6.47;;;;;;;12.84;55.88;101407.34;5057787;28;20024;-82
2023/12/14 03:38:17;;;;;;;19.70;7.13;;;;;;;13.95;52.42;101416.50;5049762;28;20029;-81
2023/12/14 03:40:42;;;;;;;15.03;6.97;;;;;;;13.10;54.61;101414.06;5051379;28;20035;-80
2023/12/14 03:43:08;;;;;;;13.90;6.53;;;;;;;12.86;54.92;101410.84;5063554;28;20189;-81
2023/12/14 03:45:33;;;;;;;15.27;6.90;;;;;;;12.72;55.99;101419.72;5071218;28;20032;-81
2023/12/14 03:47:58;;;;;;;17.27;6.23;;;;;;;13.12;54.14;101422.78;5053963;28;20029;-81
2023/12/14 03:50:24;;;;;;;13.40;5.97;;;;;;;13.29;53.98;101426.09;5041001;28;20040;-81
2023/12/14 03:52:49;;;;;;;16.87;6.27;;;;;;;12.42;55.61;101436.59;5051334;28;20029;-81
2023/12/14 03:55:15;;;;;;;13.67;4.93;;;;;;;12.26;56.84;101446.31;5051132;28;20029;-81
2023/12/14 03:57:40;;;;;;;16.37;6.90;;;;;;;12.24;56.63;101436.72;5057166;28;20024;-81
2023/12/14 04:00:09;;;;;;;16.37;5.97;;;;;;;12.29;55.95;101446.28;5058286;28;20043;-81
2023/12/14 04:02:35;;;;;;;19.57;6.33;;;;;;;12.80;54.64;101442.38;5051510;28;20032;-82
2023/12/14 04:05:00;;;;;;;15.83;6.07;;;;;;;13.21;53.57;101448.94;5059329;28;20033;-81
2023/12/14 04:07:26;;;;;;;14.73;5.63;;;;;;;12.27;55.41;101457.66;5071280;28;20476;-81
2023/12/14 04:09:51;;;;;;;15.13;5.47;;;;;;;12.51;54.81;101467.09;5060419;28;20029;-81
2023/12/14 04:12:16;;;;;;;10.17;4.37;;;;;;;11.98;55.73;101458.72;5051643;28;20664;-81
2023/12/14 04:14:42;;;;;;;15.50;6.10;;;;;;;12.80;53.19;101468.59;5070979;28;20439;-81
2023/12/14 04:17:07;;;;;;;12.87;5.70;;;;;;;13.65;51.66;101465.94;5058713;28;20362;-81
2023/12/14 04:19:33;;;;;;;12.07;6.27;;;;;;;12.87;52.00;101486.91;5066407;28;20021;-82
2023/12/14 04:21:58;;;;;;;19.23;5.47;;;;;;;13.49;51.56;101474.91;5054698;28;20029;-81
2023/12/14 04:24:23;;;;;;;12.43;5.83;;;;;;;13.36;52.20;101475.03;5054214;28;20039;-81
2023/12/14 04:26:52;;;;;;;10.37;4.80;;;;;;;12.94;52.40;101479.84;5069498;28;20082;-81
2023/12/14 04:29:17;;;;;;;9.53;4.20;;;;;;;12.53;52.87;101487.19;5066216;28;20075;-81
2023/12/14 04:31:42;;;;;;;13.63;6.27;;;;;;;12.68;52.94;101496.69;5053096;28;20539;-81
2023/12/14 04:34:11;;;;;;;7.60;4.00;;;;;;;12.60;52.80;101498.50;5052376;28;20033;-81
2023/12/14 04:36:37;;;;;;;11.20;4.73;;;;;;;12.98;52.33;101510.44;5069752;28;20031;-81
2023/12/14 04:39:03;;;;;;;7.97;4.27;;;;;;;13.16;52.33;101521.59;5081926;28;20028;-81
2023/12/14 04:41:28;;;;;;;9.90;4.23;;;;;;;13.15;51.81;101523.38;5052652;28;20071;-81
2023/12/14 04:43:53;;;;;;;11.40;4.57;;;;;;;13.19;51.51;101524.22;5063235;28;20059;-81
2023/12/14 04:46:19;;;;;;;7.27;3.87;;;;;;;13.55;50.75;101524.75;5071866;28;20423;-82
2023/12/14 04:48:44;;;;;;;8.87;4.53;;;;;;;12.28;53.04;101544.16;5065721;28;20476;-81
2023/12/14 04:51:13;;;;;;;8.87;3.83;;;;;;;13.07;52.04;101548.81;5068508;28;20021;-81
2023/12/14 04:53:39;;;;;;;17.87;4.87;;;;;;;12.96;52.25;101554.16;5060093;28;20025;-81
2023/12/14 04:56:05;;;;;;;9.10;4.60;;;;;;;12.81;51.96;101570.03;5072481;28;20047;-81
2023/12/14 04:58:30;;;;;;;10.90;3.27;;;;;;;12.89;52.33;101574.34;5063675;28;20434;-81
2023/12/14 05:00:55;;;;;;;24.70;5.53;;;;;;;13.54;51.00;101573.75;5053771;28;20020;-80
2023/12/14 05:03:21;;;;;;;9.50;4.07;;;;;;;13.49;50.57;101570.34;5052988;28;20024;-81
2023/12/14 05:05:46;;;;;;;15.00;4.03;;;;;;;13.62;50.42;101578.94;5054051;28;20025;-81
2023/12/14 05:08:11;;;;;;;8.47;3.73;;;;;;;13.22;51.19;101587.19;5054905;28;20048;-81
2023/12/14 05:10:37;;;;;;;7.30;3.43;;;;;;;14.05;49.85;101590.72;5073065;28;20021;-81
2023/12/14 05:13:02;;;;;;;12.80;3.87;;;;;;;13.60;49.61;101599.13;5052904;28;20021;-81
2023/12/14 05:15:27;;;;;;;9.23;3.70;;;;;;;13.11;50.83;101599.56;5050720;28;20439;-81
2023/12/14 05:17:53;;;;;;;7.67;3.40;;;;;;;13.09;50.52;101601.31;5053974;28;20025;-81
2023/12/14 05:20:20;;;;;;;16.60;4.67;;;;;;;13.34;49.89;101615.97;5072065;28;20131;-81
2023/12/14 05:22:45;;;;;;;5.67;2.73;;;;;;;12.38;51.14;101619.25;5070300;28;20024;-81
2023/12/14 05:25:10;;;;;;;9.50;3.17;;;;;;;12.50;52.19;101617.44;5047231;28;20033;-81
2023/12/14 05:27:36;;;;;;;9.70;4.23;;;;;;;13.29;50.40;101620.38;5049828;28;20025;-81
2023/12/14 05:30:02;;;;;;;8.93;3.63;;;;;;;12.29;51.91;101619.28;5068783;28;20124;-81
2023/12/14 05:32:28;;;;;;;4.23;2.50;;;;;;;12.70;51.35;101620.81;5072338;28;20099;-81
2023/12/14 05:34:53;;;;;;;8.20;3.80;;;;;;;12.46;51.39;101618.34;5055181;28;20124;-81
2023/12/14 05:37:18;;;;;;;5.80;3.30;;;;;;;12.42;51.16;101619.22;5051558;28;20028;-81
2023/12/14 05:39:45;;;;;;;8.03;3.73;;;;;;;11.94;52.25;101633.41;5052509;28;20025;-81
2023/12/14 05:42:10;;;;;;;7.23;3.67;;;;;;;12.79;49.55;101624.25;5052860;28;20036;-81
2023/12/14 05:44:35;;;;;;;7.93;3.37;;;;;;;11.44;52.52;101639.56;5053054;28;20049;-81
2023/12/14 05:47:01;;;;;;;6.47;3.63;;;;;;;12.08;51.87;101629.88;5041433;28;20021;-81
2023/12/14 05:49:26;;;;;;;6.57;3.73;;;;;;;11.63;52.07;101633.44;5052131;28;20028;-81
2023/12/14 05:51:51;;;;;;;8.43;2.93;;;;;;;12.14;51.14;101640.31;5031794;28;20544;-81
2023/12/14 05:54:17;;;;;;;9.00;3.37;;;;;;;12.46;50.67;101647.16;5049310;28;20515;-81
2023/12/14 05:56:42;;;;;;;6.90;3.13;;;;;;;11.55;52.22;101650.91;5042002;28;20380;-81
2023/12/14 05:59:07;;;;;;;6.23;3.07;;;;;;;12.16;51.03;101662.16;5050936;28;20477;-81
2023/12/14 06:01:33;;;;;;;5.57;2.90;;;;;;;12.03;50.24;101670.06;5031368;28;20424;-81
2023/12/14 06:03:58;;;;;;;10.33;3.10;;;;;;;12.43;50.06;101669.03;5045297;28;20028;-81
2023/12/14 06:06:24;;;;;;;8.00;3.27;;;;;;;12.04;51.21;101671.78;5050926;28;20051;-81
2023/12/14 06:08:49;;;;;;;6.67;3.03;;;;;;;12.30;50.72;101668.22;5048809;28;20029;-81
2023/12/14 06:11:14;;;;;;;7.00;3.63;;;;;;;11.92;50.93;101670.94;5039730;28;20021;-81
2023/12/14 06:13:40;;;;;;;10.63;3.90;;;;;;;12.38;50.19;101671.69;5054647;28;20048;-81
2023/12/14 06:16:06;;;;;;;5.80;3.73;;;;;;;12.16;50.61;101683.13;5071239;28;20081;-81
2023/12/14 06:18:32;;;;;;;8.20;3.50;;;;;;;12.08;51.24;101698.00;5063367;28;20035;-81
2023/12/14 06:20:57;;;;;;;7.10;3.93;;;;;;;11.81;51.22;101698.00;5046011;28;20021;-81
2023/12/14 06:23:23;;;;;;;7.80;4.03;;;;;;;12.96;49.36;101695.00;5040107;28;20036;-81
2023/12/14 06:25:48;;;;;;;8.20;3.33;;;;;;;13.17;49.01;101704.47;5067406;28;20028;-81
2023/12/14 06:28:13;;;;;;;7.27;4.37;;;;;;;13.29;48.64;101719.28;5055262;28;20033;-81
2023/12/14 06:30:40;;;;;;;11.33;4.47;;;;;;;13.01;48.98;101716.81;5055319;28;20029;-81
2023/12/14 06:33:05;;;;;;;6.63;3.67;;;;;;;12.59;49.60;101722.28;5045812;28;20024;-81
2023/12/14 06:35:31;;;;;;;8.57;4.10;;;;;;;13.43;48.67;101725.31;5053932;28;20037;-81
2023/12/14 06:37:56;;;;;;;7.63;3.93;;;;;;;13.75;47.36;101737.31;5067529;28;20154;-81
2023/12/14 06:40:21;;;;;;;6.37;3.67;;;;;;;12.95;49.24;101743.97;5066301;28;20032;-80
2023/12/14 06:42:47;;;;;;;7.13;3.37;;;;;;;12.62;49.42;101745.88;5065125;28;20511;-80
2023/12/14 06:45:12;;;;;;;14.07;3.97;;;;;;;11.90;50.78;101746.91;5067664;28;20020;-80
2023/12/14 06:47:38;;;;;;;9.13;3.60;;;;;;;12.62;49.58;101751.13;5056265;28;20044;-81
2023/12/14 06:50:03;;;;;;;8.47;4.13;;;;;;;13.23;48.38;101746.47;5069097;28;20060;-81
2023/12/14 06:52:29;;;;;;;4.83;2.93;;;;;;;12.38;49.99;101766.06;5050658;28;20036;-81
2023/12/14 06:54:54;;;;;;;6.83;4.40;;;;;;;12.34;50.35;101761.72;5056246;28;20029;-81
2023/12/14 06:57:20;;;;;;;6.63;3.80;;;;;;;12.62;49.52;101759.00;5061557;28;20095;-81
2023/12/14 06:59:45;;;;;;;7.53;3.77;;;;;;;12.81;49.36;101764.19;5053374;28;20025;-81
2023/12/14 07:02:11;;;;;;;5.93;3.53;;;;;;;12.62;49.54;101768.63;5069714;28;20036;-81
2023/12/14 07:04:36;;;;;;;6.37;3.30;;;;;;;12.71;49.53;101774.69;5068132;28;20036;-81
2023/12/14 07:07:01;;;;;;;7.83;4.80;;;;;;;12.80;49.47;101772.91;5071105;28;20036;-81
2023/12/14 07:09:27;;;;;;;6.23;3.20;;;;;;;13.65;48.15;101781.19;5060893;28;20021;-80
2023/12/14 07:11:53;;;;;;;7.60;4.47;;;;;;;14.08;46.88;101783.47;5061792;28;20033;-81
2023/12/14 07:14:19;;;;;;;8.63;3.93;;;;;;;12.70;49.03;101788.69;5049368;28;20036;-81
2023/12/14 07:16:44;;;;;;;9.87;4.67;;;;;;;12.61;49.96;101788.75;5068496;28;20479;-81
2023/12/14 07:19:11;;;;;;;7.73;4.57;;;;;;;13.18;48.61;101790.25;5062283;28;20115;-81
2023/12/14 07:21:36;;;;;;;6.50;4.00;;;;;;;12.83;48.59;101788.63;5051987;28;20098;-81
2023/12/14 07:24:02;;;;;;;5.70;3.67;;;;;;;12.85;48.86;101793.00;5050907;28;20540;-81
2023/12/14 07:26:27;;;;;;;5.13;3.43;;;;;;;13.38;47.89;101804.16;5060470;28;20025;-80
2023/12/14 07:28:53;;;;;;;8.53;3.77;;;;;;;12.37;49.71;101806.25;5048737;28;20028;-80
2023/12/14 07:31:19;;;;;;;7.27;3.77;;;;;;;13.22;48.17;101810.34;5050820;28;20055;-80
2023/12/14 07:33:45;;;;;;;7.50;4.20;;;;;;;13.33;47.80;101813.78;5047055;28;20385;-80
2023/12/14 07:36:11;;;;;;;8.77;5.23;;;;;;;12.43;49.36;101821.09;5047585;28;20060;-81
2023/12/14 07:38:36;;;;;;;8.60;4.83;;;;;;;12.48;50.90;101823.75;5051042;28;20504;-81
2023/12/14 07:41:03;;;;;;;7.93;4.37;;;;;;;12.96;49.40;101816.59;5058801;28;20125;-81
2023/12/14 07:43:28;;;;;;;12.27;4.57;;;;;;;13.18;48.35;101827.00;5069758;28;20595;-81
2023/12/14 07:45:54;;;;;;;10.53;4.80;;;;;;;13.02;48.60;101827.06;5064184;28;20040;-80
2023/12/14 07:48:19;;;;;;;9.73;4.33;;;;;;;13.20;48.15;101830.47;5049586;28;20832;-80
2023/12/14 07:50:45;;;;;;;18.27;4.57;;;;;;;13.24;48.64;101822.59;5052359;28;20085;-80
2023/12/14 07:53:11;;;;;;;7.07;3.70;;;;;;;13.50;47.85;101818.94;5053685;28;20052;-80
2023/12/14 07:55:36;;;;;;;9.00;4.30;;;;;;;13.03;48.72;101828.78;5055142;28;20064;-81
2023/12/14 07:58:01;;;;;;;7.50;4.60;;;;;;;13.95;46.57;101828.28;5054362;28;20405;-80
2023/12/14 08:00:27;;;;;;;7.77;4.50;;;;;;;13.06;47.29;101834.03;5049721;28;20029;-81
2023/12/14 08:02:52;;;;;;;13.37;4.87;;;;;;;13.78;46.45;101826.66;5064211;28;20037;-80
2023/12/14 08:05:18;;;;;;;6.77;4.07;;;;;;;12.64;47.77;101843.81;5049651;28;20123;-80
2023/12/14 08:07:43;;;;;;;8.77;3.93;;;;;;;13.68;46.48;101833.72;5080274;28;20484;-80
2023/12/14 08:10:09;;;;;;;7.77;3.87;;;;;;;13.76;46.11;101836.28;5053306;28;20393;-80
2023/12/14 08:12:34;;;;;;;8.47;4.37;;;;;;;13.31;46.89;101844.44;5054155;28;20033;-80
2023/12/14 08:15:03;;;;;;;7.00;4.30;;;;;;;13.44;47.02;101845.25;5054641;28;20021;-80
2023/12/14 08:17:28;;;;;;;7.50;4.30;;;;;;;13.37;47.48;101852.28;5068992;28;20412;-80
2023/12/14 08:19:54;;;;;;;13.83;6.33;;;;;;;13.34;47.58;101862.78;5073047;28;20035;-80
2023/12/14 08:22:21;;;;;;;13.73;7.20;;;;;;;13.07;47.67;101866.41;5061270;28;20214;-80
2023/12/14 08:24:47;;;;;;;9.77;5.10;;;;;;;12.43;49.09;101875.31;5051472;28;20047;-80
2023/12/14 08:27:12;;;;;;;13.00;6.20;;;;;;;12.58;49.37;101883.16;5050421;28;20366;-80
2023/12/14 08:29:38;;;;;;;11.63;6.40;;;;;;;12.76;49.38;101886.63;5052806;28;20047;-80
2023/12/14 08:32:04;;;;;;;10.33;5.37;;;;;;;12.92;48.35;101903.22;5054663;28;20029;-79
2023/12/14 08:34:29;;;;;;;12.67;5.77;;;;;;;13.02;48.47;101911.06;5034412;28;20023;-79
2023/12/14 08:36:55;;;;;;;10.73;4.33;;;;;;;12.87;48.50;101911.06;5041448;28;20051;-81
2023/12/14 08:39:20;;;;;;;15.37;5.07;;;;;;;12.78;48.90;101916.38;5048638;28;20025;-81
2023/12/14 08:41:47;;;;;;;9.73;4.43;;;;;;;12.83;48.86;101919.81;5057585;28;20491;-79
2023/12/14 08:44:13;;;;;;;10.17;4.27;;;;;;;13.03;48.73;101930.28;5073873;28;20130;-80
2023/12/14 08:46:44;;;;;;;12.33;5.43;;;;;;;12.76;48.87;101929.44;5071273;28;20495;-81
2023/12/14 08:49:11;;;;;;;9.30;4.30;;;;;;;13.34;48.35;101938.03;5053483;28;20115;-80
2023/12/14 08:51:36;;;;;;;11.83;5.13;;;;;;;12.95;48.39;101939.94;5052831;28;20021;-80
2023/12/14 08:54:02;;;;;;;7.80;4.00;;;;;;;12.50;49.87;101948.75;5069788;28;20606;-80
2023/12/14 08:56:27;;;;;;;11.03;5.20;;;;;;;13.46;48.46;101947.66;5052576;28;20056;-80
2023/12/14 08:58:52;;;;;;;10.03;5.13;;;;;;;13.89;47.18;101952.72;5068430;28;20024;-79
2023/12/14 09:01:21;;;;;;;11.40;4.50;;;;;;;14.18;47.00;101955.16;5050625;28;20105;-80
2023/12/14 09:03:47;;;;;;;8.33;4.53;;;;;;;13.97;46.91;101948.28;5064963;28;20032;-80
2023/12/14 09:06:14;;;;;;;7.77;4.67;;;;;;;14.02;46.68;101964.88;5048676;28;20053;-80
2023/12/14 09:08:40;;;;;;;11.17;4.60;;;;;;;14.57;46.19;101962.72;5064454;28;20086;-80
2023/12/14 09:11:05;;;;;;;9.23;4.63;;;;;;;13.63;47.13;101965.97;5071308;28;20025;-80
2023/12/14 09:13:31;;;;;;;11.37;5.27;;;;;;;14.19;46.37;101967.41;5052194;28;20447;-78
2023/12/14 09:15:56;;;;;;;17.93;5.07;;;;;;;14.65;45.72;101971.47;5051665;28;20029;-79
2023/12/14 09:18:23;;;;;;;7.90;4.13;;;;;;;13.33;46.83;101979.19;5052622;28;20028;-79
2023/12/14 09:20:51;;;;;;;12.20;5.67;;;;;;;14.00;46.46;101966.66;5047876;28;20419;-79
2023/12/14 09:23:18;;;;;;;12.83;4.33;;;;;;;14.00;45.14;101966.66;5057262;28;20484;-78
2023/12/14 09:25:44;;;;;;;8.37;4.70;;;;;;;14.36;45.63;101969.91;5053626;28;20108;-78
2023/12/14 09:28:09;;;;;;;8.53;4.17;;;;;;;14.23;44.73;101973.50;5046943;28;20025;-78
2023/12/14 09:30:35;;;;;;;10.27;4.63;;;;;;;14.06;45.30;101977.13;5043488;28;20060;-79
2023/12/14 09:33:00;;;;;;;8.83;3.70;;;;;;;13.75;45.47;101981.66;5052520;28;20056;-78
2023/12/14 09:35:26;;;;;;;8.20;3.27;;;;;;;13.81;45.72;101980.81;5046639;28;20041;-79
2023/12/14 09:37:52;;;;;;;7.00;3.83;;;;;;;13.59;45.23;101986.16;5049549;28;20033;-79
2023/12/14 09:40:18;;;;;;;7.23;4.03;;;;;;;14.36;44.48;101990.94;5058984;28;20365;-79
2023/12/14 09:42:44;;;;;;;7.27;3.60;;;;;;;13.34;45.36;101995.81;5050363;28;20025;-78
2023/12/14 09:45:11;;;;;;;7.20;4.13;;;;;;;13.14;46.41;101998.50;5067843;28;20021;-78
2023/12/14 09:47:38;;;;;;;7.73;3.50;;;;;;;14.33;44.34;102004.13;5071197;28;20032;-78
2023/12/14 09:50:05;;;;;;;7.13;3.63;;;;;;;14.45;44.65;102010.19;5054900;28;20098;-79
2023/12/14 09:52:31;;;;;;;9.67;3.93;;;;;;;14.88;44.41;102015.13;5051264;28;20027;-79
2023/12/14 09:54:56;;;;;;;7.13;4.20;;;;;;;14.50;44.86;102024.19;5052566;28;20096;-78
2023/12/14 09:57:22;;;;;;;6.23;3.17;;;;;;;14.71;44.83;102018.78;5046715;28;20025;-78
2023/12/14 09:59:55;;;;;;;8.07;4.50;;;;;;;14.89;44.55;102022.13;5032939;28;20017;-79
2023/12/14 10:02:25;;;;;;;8.68;4.15;;;;;;;15.19;43.81;102030.63;5063939;28;20051;-79
2023/12/14 10:04:50;;;;;;;8.03;3.83;;;;;;;14.91;44.52;102023.00;5053652;28;20095;-79
2023/12/14 10:07:16;;;;;;;6.77;3.47;;;;;;;14.80;45.10;102027.50;5049539;28;20080;-79
2023/12/14 10:09:42;;;;;;;7.17;3.37;;;;;;;14.07;45.50;102031.44;5052295;28;20037;-79
2023/12/14 10:12:09;;;;;;;5.10;3.57;;;;;;;15.05;43.94;102033.41;5049459;28;20021;-78
2023/12/14 10:14:36;;;;;;;8.33;4.40;;;;;;;14.52;43.79;102043.44;5051802;28;20492;-78
2023/12/14 10:17:21;;;;;;;7.93;4.13;;;;;;;14.20;45.16;102036.66;5050166;28;20502;-78
2023/12/14 10:19:47;;;;;;;7.37;4.37;;;;;;;14.55;44.29;102038.19;5055395;28;20024;-79
2023/12/14 10:22:19;;;;;;;8.00;3.70;;;;;;;13.91;45.41;102045.56;5056461;28;20036;-78
2023/12/14 10:24:47;;;;;;;8.25;3.92;;;;;;;13.96;45.63;102043.78;5050942;28;20039;-79
2023/12/14 10:27:15;;;;;;;8.43;4.07;;;;;;;14.23;45.02;102047.13;5050202;28;20108;-78
2023/12/14 10:29:41;;;;;;;5.90;3.30;;;;;;;13.61;46.00;102047.41;5054889;28;20036;-77
2023/12/14 10:32:08;;;;;;;7.93;3.70;;;;;;;14.15;44.67;102047.19;5052373;28;20017;-78
2023/12/14 10:34:35;;;;;;;6.83;3.60;;;;;;;15.39;43.31;102039.19;5054127;28;20480;-79
2023/12/14 10:37:04;;;;;;;9.57;3.93;;;;;;;15.78;42.94;102047.53;5053725;28;20021;-79
2023/12/14 10:39:30;;;;;;;10.43;4.40;;;;;;;16.08;42.67;102055.94;5049095;28;20017;-79
2023/12/14 10:41:57;;;;;;;9.03;4.80;;;;;;;15.36;42.62;102052.41;5052120;28;20066;-78
2023/12/14 10:44:26;;;;;;;7.00;3.83;;;;;;;16.14;41.34;102059.41;5049517;28;20100;-78
2023/12/14 10:46:56;;;;;;;4.40;2.93;;;;;;;15.26;42.48;102059.53;5050396;28;20514;-78
2023/12/14 10:49:23;;;;;;;8.47;3.87;;;;;;;15.97;42.22;102071.03;5050951;28;20044;-78
2023/12/14 10:51:49;;;;;;;12.47;3.80;;;;;;;15.72;41.91;102063.41;5047549;28;20175;-79
2023/12/14 10:54:16;;;;;;;7.40;4.10;;;;;;;16.41;41.31;102069.53;5048728;28;20107;-77
2023/12/14 10:56:41;;;;;;;7.00;3.67;;;;;;;16.56;40.55;102064.94;5051316;28;20806;-79
2023/12/14 10:59:07;;;;;;;6.97;4.10;;;;;;;16.49;40.57;102066.78;5050441;28;20074;-80
2023/12/14 11:01:35;;;;;;;7.73;3.90;;;;;;;16.11;40.89;102077.03;5052458;28;20154;-79
2023/12/14 11:04:03;;;;;;;4.80;3.17;;;;;;;15.72;41.37;102083.63;5040478;28;20036;-78
2023/12/14 11:06:32;;;;;;;6.23;3.10;;;;;;;16.39;40.43;102084.53;5046544;28;20032;-79
2023/12/14 11:09:06;;;;;;;10.67;3.67;;;;;;;16.23;41.01;102085.66;5066635;28;20089;-79
2023/12/14 11:11:41;;;;;;;5.93;2.93;;;;;;;16.03;41.92;102083.25;5066054;28;20220;-78
2023/12/14 11:14:10;;;;;;;7.07;3.27;;;;;;;16.11;41.27;102084.94;5048857;28;20025;-78
2023/12/14 11:16:37;;;;;;;5.57;3.10;;;;;;;15.90;42.41;102085.19;5052143;28;20032;-78